Time;durP1;ratioP1;P1;durP2;ratioP2;P2;SDS_P1;SDS_P2;PMS_P1;PMS_P2;Temp;Humidity;BMP_temperature;BMP_pressure;BME280_temperature;BME280_humidity;BME280_pressure;Samples;Min_cycle;Max_cycle;Signal;HPM_P1;HPM_P2
2022/02/06 00:02:14;;;;;;;6.63;1.80;;;7.60;99.90;;;;;;5073143;28;20485;-67
2022/02/06 00:04:42;;;;;;;5.30;1.77;;;7.60;99.90;;;;;;5073521;28;20441;-68
2022/02/06 00:07:09;;;;;;;4.17;1.67;;;7.60;99.90;;;;;;5073162;28;20503;-67
2022/02/06 00:09:37;;;;;;;11.70;2.10;;;7.60;99.90;;;;;;5073399;28;20452;-67
2022/02/06 00:12:04;;;;;;;9.67;2.33;;;7.60;99.90;;;;;;5073418;28;20471;-67
2022/02/06 00:14:34;;;;;;;14.90;2.47;;;7.70;99.90;;;;;;5072884;28;20958;-67
2022/02/06 00:17:02;;;;;;;6.10;1.77;;;7.60;99.90;;;;;;5073396;28;20457;-66
2022/02/06 00:19:29;;;;;;;5.83;2.10;;;7.70;99.90;;;;;;5073932;28;20448;-67
2022/02/06 00:21:55;;;;;;;5.30;1.70;;;7.60;99.90;;;;;;5073228;28;20511;-67
2022/02/06 00:24:30;;;;;;;7.77;2.30;;;7.70;99.90;;;;;;5073017;28;20451;-67
2022/02/06 00:27:02;;;;;;;6.10;2.10;;;7.70;99.90;;;;;;5073372;28;20437;-67
2022/02/06 00:29:39;;;;;;;5.10;2.10;;;7.60;99.90;;;;;;5073276;28;20428;-66
2022/02/06 00:32:14;;;;;;;6.53;1.80;;;7.70;99.90;;;;;;5073229;28;20556;-66
2022/02/06 00:35:15;;;;;;;5.60;2.50;;;7.60;99.90;;;;;;5073167;28;20431;-67
2022/02/06 00:40:33;;;;;;;6.13;2.30;;;7.70;99.90;;;;;;5073175;28;20443;-66
2022/02/06 00:43:00;;;;;;;9.17;1.77;;;7.70;99.90;;;;;;5072704;28;20839;-67
2022/02/06 00:45:26;;;;;;;4.77;1.73;;;7.80;99.90;;;;;;5073117;28;20448;-67
2022/02/06 00:47:54;;;;;;;7.10;1.93;;;7.80;99.90;;;;;;5073145;28;20433;-66
2022/02/06 00:50:21;;;;;;;6.80;2.20;;;7.80;99.90;;;;;;5073160;28;20559;-66
2022/02/06 00:53:00;;;;;;;3.57;1.80;;;7.80;99.90;;;;;;5072998;28;20468;-67
2022/02/06 00:55:27;;;;;;;5.53;1.90;;;7.80;99.90;;;;;;5073615;28;20451;-67
2022/02/06 00:57:53;;;;;;;4.57;2.20;;;7.90;99.90;;;;;;5072713;28;20897;-67
2022/02/06 01:00:20;;;;;;;10.13;2.17;;;7.90;99.90;;;;;;5073061;28;20455;-66
2022/02/06 01:02:47;;;;;;;4.40;1.97;;;7.90;99.90;;;;;;5072899;28;20481;-66
2022/02/06 01:05:15;;;;;;;9.37;2.23;;;7.90;99.90;;;;;;5072966;28;20445;-66
2022/02/06 01:07:42;;;;;;;2.40;1.43;;;7.90;99.90;;;;;;5073054;28;20448;-66
2022/02/06 01:10:10;;;;;;;4.93;2.20;;;7.90;99.90;;;;;;5072763;28;20457;-66
2022/02/06 01:12:39;;;;;;;9.70;2.27;;;7.90;99.90;;;;;;5072867;28;20465;-67
2022/02/06 01:15:11;;;;;;;9.70;3.00;;;7.90;99.90;;;;;;5072681;28;20514;-66
2022/02/06 01:17:42;;;;;;;6.47;2.90;;;7.90;99.90;;;;;;5072983;28;20439;-66
2022/02/06 01:20:15;;;;;;;9.33;3.20;;;7.90;99.90;;;;;;5075766;28;20914;-66
2022/02/06 01:22:51;;;;;;;6.23;2.20;;;7.90;99.90;;;;;;5076266;28;21010;-66
2022/02/06 01:25:25;;;;;;;7.00;2.23;;;7.90;99.90;;;;;;5076258;28;20432;-66
2022/02/06 01:27:57;;;;;;;10.67;2.60;;;8.00;99.90;;;;;;5077260;28;20440;-66
2022/02/06 01:30:31;;;;;;;7.60;2.20;;;8.00;99.90;;;;;;5076696;28;20433;-66
2022/02/06 01:33:03;;;;;;;7.03;2.63;;;8.00;99.90;;;;;;5076428;28;20517;-66
2022/02/06 01:35:36;;;;;;;6.07;1.97;;;8.10;99.90;;;;;;5076959;28;20536;-66
2022/02/06 01:38:15;;;;;;;10.53;3.40;;;8.10;99.90;;;;;;5076508;28;20965;-66
2022/02/06 01:40:54;;;;;;;7.40;3.37;;;8.10;99.90;;;;;;5076417;28;20478;-66
2022/02/06 01:43:25;;;;;;;7.30;2.90;;;8.20;99.90;;;;;;5076279;28;20488;-67
2022/02/06 01:46:13;;;;;;;8.43;2.13;;;8.20;99.90;;;;;;5076260;28;20439;-66
2022/02/06 02:02:47;;;;;;;6.23;2.27;;;8.30;99.90;;;;;;5075741;28;21055;-67
2022/02/06 02:08:23;;;;;;;7.83;2.80;;;8.20;99.90;;;;;;5071872;28;20431;-66
2022/02/06 02:11:06;;;;;;;5.57;2.20;;;8.30;99.90;;;;;;5076377;28;20487;-66
2022/02/06 02:13:55;;;;;;;9.07;2.57;;;8.20;99.90;;;;;;5075726;28;20460;-67
2022/02/06 02:19:33;;;;;;;8.30;3.40;;;8.10;99.90;;;;;;5057926;28;20478;-67
2022/02/06 02:28:04;;;;;;;5.13;2.43;;;8.10;99.90;;;;;;5013336;28;20435;-67
2022/02/06 02:46:58;;;;;;;5.53;2.60;;;8.10;99.90;;;;;;5074717;28;20926;-67
2022/02/06 02:49:30;;;;;;;10.90;2.93;;;8.10;99.90;;;;;;5074595;28;20428;-67
2022/02/06 02:52:02;;;;;;;8.80;2.83;;;8.10;99.90;;;;;;5075271;28;20467;-67
2022/02/06 02:54:33;;;;;;;8.60;2.43;;;8.10;99.90;;;;;;5074970;28;20459;-66
2022/02/06 02:57:08;;;;;;;5.57;3.37;;;8.10;99.90;;;;;;5074895;28;20770;-66
2022/02/06 02:59:48;;;;;;;7.87;2.60;;;8.10;99.90;;;;;;5074801;28;20460;-66
2022/02/06 03:02:15;;;;;;;7.93;2.33;;;8.10;99.90;;;;;;5074544;28;20469;-67
2022/02/06 03:04:43;;;;;;;8.90;2.20;;;8.10;99.90;;;;;;5074667;28;20884;-66
2022/02/06 03:07:10;;;;;;;9.47;2.23;;;8.10;99.90;;;;;;5074505;28;20547;-66
2022/02/06 03:09:42;;;;;;;6.00;2.17;;;8.20;99.90;;;;;;5074152;28;20959;-66
2022/02/06 03:12:10;;;;;;;12.73;3.27;;;8.20;99.90;;;;;;5074360;28;20473;-67
2022/02/06 03:14:44;;;;;;;8.20;2.10;;;8.10;99.90;;;;;;5074074;28;20821;-66
2022/02/06 03:17:18;;;;;;;9.00;2.70;;;8.10;99.90;;;;;;5074903;28;20432;-66
2022/02/06 03:19:53;;;;;;;5.60;2.77;;;8.10;99.90;;;;;;5074305;28;20507;-66
2022/02/06 03:22:24;;;;;;;7.40;2.60;;;8.10;99.90;;;;;;5074066;28;20537;-66
2022/02/06 03:24:56;;;;;;;7.53;2.13;;;8.10;99.90;;;;;;5074728;28;20437;-66
2022/02/06 03:27:22;;;;;;;7.20;2.67;;;8.10;99.90;;;;;;5074992;28;20777;-66
2022/02/06 03:29:49;;;;;;;6.80;2.37;;;8.10;99.90;;;;;;5073841;28;20445;-67
2022/02/06 03:32:16;;;;;;;13.07;2.20;;;8.10;99.90;;;;;;5073998;28;20468;-66
2022/02/06 03:34:42;;;;;;;4.07;2.30;;;8.10;99.90;;;;;;5074023;28;20452;-66
2022/02/06 03:37:09;;;;;;;9.93;2.83;;;8.00;99.90;;;;;;5074028;28;20444;-66
2022/02/06 03:39:38;;;;;;;7.90;1.73;;;8.00;99.90;;;;;;5073777;28;20453;-66
2022/02/06 03:42:10;;;;;;;6.23;2.30;;;8.10;99.90;;;;;;5073217;28;20472;-66
2022/02/06 03:44:42;;;;;;;7.97;3.13;;;8.00;99.90;;;;;;5073508;28;20979;-66
2022/02/06 03:47:14;;;;;;;9.93;2.27;;;8.00;99.90;;;;;;5073583;28;20900;-66
2022/02/06 03:49:52;;;;;;;5.07;2.37;;;7.90;99.90;;;;;;5073817;28;20483;-66
2022/02/06 03:52:22;;;;;;;7.93;2.20;;;8.00;99.90;;;;;;5073467;28;20490;-67
2022/02/06 03:54:49;;;;;;;2.73;2.30;;;7.90;99.90;;;;;;5073677;28;20850;-66
2022/02/06 03:57:17;;;;;;;14.50;2.87;;;7.90;99.90;;;;;;5073712;28;20456;-66
2022/02/06 03:59:44;;;;;;;10.83;2.30;;;7.90;99.90;;;;;;5073617;28;20444;-67
2022/02/06 04:02:10;;;;;;;7.47;2.93;;;7.90;99.90;;;;;;5073226;28;20471;-66
2022/02/06 04:04:37;;;;;;;6.80;2.57;;;7.90;99.90;;;;;;5073474;28;21007;-66
2022/02/06 04:07:07;;;;;;;8.73;2.67;;;7.90;99.90;;;;;;5073562;28;20452;-67
2022/02/06 04:09:40;;;;;;;3.63;2.60;;;7.80;99.90;;;;;;5073512;28;20548;-66
2022/02/06 04:12:07;;;;;;;7.67;3.00;;;7.80;99.90;;;;;;5073471;28;20479;-66
2022/02/06 04:14:51;;;;;;;8.33;3.13;;;7.80;99.90;;;;;;5073336;28;20873;-66
2022/02/06 04:17:21;;;;;;;10.60;2.70;;;7.80;99.90;;;;;;5073193;28;20899;-66
2022/02/06 04:19:50;;;;;;;9.43;2.60;;;7.80;99.90;;;;;;5073437;28;20439;-66
2022/02/06 04:22:17;;;;;;;7.23;2.40;;;7.80;99.90;;;;;;5073346;28;20472;-66
2022/02/06 04:24:44;;;;;;;13.57;3.23;;;7.90;99.90;;;;;;5072975;28;21021;-66
2022/02/06 04:27:11;;;;;;;8.63;2.53;;;7.90;99.90;;;;;;5072971;28;20853;-66
2022/02/06 04:29:39;;;;;;;5.60;2.87;;;7.90;99.90;;;;;;5073032;28;20962;-66
2022/02/06 04:32:08;;;;;;;9.13;2.47;;;7.90;99.90;;;;;;5073335;28;20472;-66
2022/02/06 04:34:35;;;;;;;6.53;2.03;;;7.90;99.90;;;;;;5073359;28;20468;-66
2022/02/06 04:37:08;;;;;;;7.27;2.60;;;8.00;99.90;;;;;;5074202;28;20494;-66
2022/02/06 04:42:26;;;;;;;6.60;3.43;;;7.90;99.90;;;;;;5071160;28;20868;-66
2022/02/06 04:48:15;;;;;;;8.50;3.23;;;7.90;99.90;;;;;;5052116;28;21001;-66
2022/02/06 05:16:02;;;;;;;5.43;2.33;;;7.90;99.90;;;;;;5076453;28;20444;-67
2022/02/06 05:19:01;;;;;;;7.70;2.80;;;7.90;99.90;;;;;;5076616;28;20433;-67
2022/02/06 05:21:53;;;;;;;6.33;2.10;;;8.00;99.90;;;;;;5076215;28;20989;-67
2022/02/06 05:27:20;;;;;;;6.13;2.57;;;8.00;99.90;;;;;;5072650;28;20431;-67
2022/02/06 05:29:55;;;;;;;8.70;2.60;;;8.00;99.90;;;;;;5076207;28;20807;-68
2022/02/06 05:32:32;;;;;;;3.37;2.17;;;8.00;99.90;;;;;;5076262;28;20555;-67
2022/02/06 05:35:00;;;;;;;4.57;2.00;;;8.00;99.90;;;;;;5076653;28;20429;-66
2022/02/06 05:37:27;;;;;;;9.80;2.40;;;8.00;99.90;;;;;;5076383;28;20524;-66
2022/02/06 05:39:54;;;;;;;7.03;2.60;;;8.00;99.90;;;;;;5076107;28;20444;-66
2022/02/06 05:42:21;;;;;;;4.10;2.17;;;8.10;99.90;;;;;;5076120;28;20460;-66
2022/02/06 05:44:53;;;;;;;7.80;2.10;;;8.10;99.90;;;;;;5076218;28;20484;-66
2022/02/06 05:47:20;;;;;;;8.30;1.53;;;8.10;99.90;;;;;;5076086;28;20433;-66
2022/02/06 05:49:46;;;;;;;3.67;2.00;;;8.10;99.90;;;;;;5076010;28;20525;-66
2022/02/06 05:52:16;;;;;;;3.47;2.20;;;8.10;99.90;;;;;;5075971;28;20464;-66
2022/02/06 05:54:43;;;;;;;5.00;2.10;;;8.10;99.90;;;;;;5075953;28;20440;-66
2022/02/06 05:57:09;;;;;;;6.60;1.60;;;8.10;99.90;;;;;;5075604;28;20898;-66
2022/02/06 05:59:36;;;;;;;8.40;2.87;;;8.10;99.90;;;;;;5075539;28;20811;-66
2022/02/06 06:02:03;;;;;;;2.83;1.73;;;8.10;99.90;;;;;;5075742;28;20464;-67
2022/02/06 06:04:30;;;;;;;3.60;1.63;;;8.10;99.90;;;;;;5074822;28;21017;-67
2022/02/06 06:06:57;;;;;;;3.43;1.90;;;8.10;99.90;;;;;;5075716;28;20474;-67
2022/02/06 06:09:25;;;;;;;3.23;1.87;;;8.10;99.90;;;;;;5075698;28;20502;-67
2022/02/06 06:11:51;;;;;;;7.07;1.97;;;8.10;99.90;;;;;;5075277;28;20991;-67
2022/02/06 06:14:18;;;;;;;3.30;1.90;;;8.10;99.90;;;;;;5075551;28;20441;-66
2022/02/06 06:16:45;;;;;;;4.47;2.03;;;8.10;99.90;;;;;;5075156;28;20456;-67
2022/02/06 06:19:13;;;;;;;4.83;1.83;;;8.10;99.90;;;;;;5076178;28;20453;-67
2022/02/06 06:21:43;;;;;;;3.67;1.73;;;8.10;99.90;;;;;;5075412;28;20448;-67
2022/02/06 06:24:15;;;;;;;5.67;1.70;;;8.10;99.90;;;;;;5075105;28;20464;-67
2022/02/06 06:26:43;;;;;;;4.30;1.70;;;8.10;99.90;;;;;;5075379;28;20766;-66
2022/02/06 06:29:10;;;;;;;4.17;1.90;;;8.10;99.90;;;;;;5075066;28;20939;-66
2022/02/06 06:31:36;;;;;;;3.60;2.50;;;8.10;99.90;;;;;;5075188;28;20805;-67
2022/02/06 06:34:03;;;;;;;8.70;2.20;;;8.10;99.90;;;;;;5075621;28;20417;-67
2022/02/06 06:36:32;;;;;;;6.30;1.90;;;8.10;99.90;;;;;;5075215;28;20452;-67
2022/02/06 06:38:59;;;;;;;4.83;2.13;;;8.10;99.90;;;;;;5075094;28;20555;-67
2022/02/06 06:41:26;;;;;;;6.70;2.03;;;8.10;99.90;;;;;;5075050;28;20449;-67
2022/02/06 06:43:54;;;;;;;3.77;2.33;;;8.20;99.90;;;;;;5074874;28;20846;-67
2022/02/06 06:46:21;;;;;;;4.47;2.00;;;8.20;99.90;;;;;;5074671;28;20931;-67
2022/02/06 06:48:47;;;;;;;5.60;2.20;;;8.20;99.90;;;;;;5074615;28;20449;-67
2022/02/06 06:51:14;;;;;;;9.33;2.90;;;8.20;99.90;;;;;;5075347;28;20974;-71
2022/02/06 06:53:43;;;;;;;7.17;1.47;;;8.10;99.90;;;;;;5075698;28;20464;-71
2022/02/06 06:56:15;;;;;;;2.37;1.70;;;8.10;99.90;;;;;;5074773;28;20789;-71
2022/02/06 06:58:45;;;;;;;3.67;2.10;;;8.10;99.90;;;;;;5074867;28;20542;-72
2022/02/06 07:01:42;;;;;;;6.80;2.30;;;8.10;99.90;;;;;;5074399;28;20961;-72
2022/02/06 07:04:08;;;;;;;3.57;2.00;;;8.10;99.90;;;;;;5073953;28;20930;-72
2022/02/06 07:06:34;;;;;;;5.93;2.77;;;8.10;99.90;;;;;;5074539;28;20448;-72
2022/02/06 07:09:01;;;;;;;3.80;1.60;;;8.10;99.90;;;;;;5074593;28;20429;-72
2022/02/06 07:11:28;;;;;;;11.13;2.10;;;8.20;99.90;;;;;;5074473;28;20445;-71
2022/02/06 07:13:56;;;;;;;4.23;1.90;;;8.10;99.90;;;;;;5074037;28;20844;-71
2022/02/06 07:16:24;;;;;;;3.20;2.00;;;8.10;99.90;;;;;;5073082;28;20461;-71
2022/02/06 07:18:50;;;;;;;3.40;1.97;;;8.10;99.90;;;;;;5074342;28;20444;-71
2022/02/06 07:21:17;;;;;;;2.80;1.80;;;8.10;99.90;;;;;;5074195;28;20453;-71
2022/02/06 07:23:44;;;;;;;8.80;2.73;;;8.10;99.90;;;;;;5073906;28;20488;-71
2022/02/06 07:26:17;;;;;;;7.57;2.23;;;8.10;99.90;;;;;;5074182;28;20565;-71
2022/02/06 07:28:48;;;;;;;8.40;2.20;;;8.10;99.90;;;;;;5074199;28;20470;-71
2022/02/06 07:31:15;;;;;;;4.17;2.07;;;8.10;99.90;;;;;;5074093;28;20429;-71
2022/02/06 07:33:43;;;;;;;6.53;1.77;;;8.10;99.90;;;;;;5073677;28;20997;-71
2022/02/06 07:36:10;;;;;;;3.97;2.00;;;8.10;99.90;;;;;;5074078;28;20433;-71
2022/02/06 07:38:37;;;;;;;1.80;1.20;;;8.10;99.90;;;;;;5073663;28;20794;-71
2022/02/06 07:41:03;;;;;;;3.37;1.77;;;8.10;99.90;;;;;;5073518;28;20452;-71
2022/02/06 07:43:30;;;;;;;2.30;1.43;;;8.00;99.90;;;;;;5073410;28;20978;-70
2022/02/06 07:45:57;;;;;;;2.70;1.20;;;8.10;99.90;;;;;;5073976;28;20440;-71
2022/02/06 07:48:23;;;;;;;1.30;1.20;;;8.10;99.90;;;;;;5073821;28;20452;-71
2022/02/06 07:50:51;;;;;;;5.13;1.80;;;8.10;99.90;;;;;;5073533;28;20452;-71
2022/02/06 07:53:19;;;;;;;2.43;1.00;;;8.10;99.90;;;;;;5073711;28;20457;-71
2022/02/06 07:55:45;;;;;;;6.07;1.60;;;8.10;99.90;;;;;;5073455;28;21000;-71
2022/02/06 07:58:12;;;;;;;1.70;0.90;;;8.00;99.90;;;;;;5073658;28;20456;-71
2022/02/06 08:00:39;;;;;;;1.30;1.20;;;8.10;99.90;;;;;;5073324;28;20984;-71
2022/02/06 08:03:06;;;;;;;2.40;1.20;;;8.10;99.90;;;;;;5073586;28;20471;-71
2022/02/06 08:05:32;;;;;;;6.80;1.33;;;8.10;99.90;;;;;;5073221;28;20507;-71
2022/02/06 08:08:01;;;;;;;2.70;1.20;;;8.10;99.90;;;;;;5073585;28;20487;-71
2022/02/06 08:10:29;;;;;;;1.57;1.13;;;8.10;99.90;;;;;;5074074;28;20852;-71
2022/02/06 08:13:05;;;;;;;2.20;0.97;;;8.20;99.90;;;;;;5073394;28;20461;-71
2022/02/06 08:15:32;;;;;;;1.40;1.10;;;8.20;99.90;;;;;;5073099;28;20522;-71
2022/02/06 08:17:59;;;;;;;1.40;1.13;;;8.20;99.90;;;;;;5073436;28;20445;-71
2022/02/06 08:20:26;;;;;;;2.23;1.30;;;8.30;99.90;;;;;;5073413;28;20490;-71
2022/02/06 08:22:52;;;;;;;4.23;1.30;;;8.30;99.90;;;;;;5073344;28;20475;-71
2022/02/06 08:25:21;;;;;;;1.23;1.13;;;8.30;99.90;;;;;;5073318;28;20468;-70
2022/02/06 08:27:48;;;;;;;5.40;2.00;;;8.30;99.90;;;;;;5073074;28;20449;-71
2022/02/06 08:30:15;;;;;;;1.23;1.13;;;8.30;99.90;;;;;;5073088;28;20926;-71
2022/02/06 08:32:43;;;;;;;2.63;1.90;;;8.30;99.90;;;;;;5073252;28;20460;-71
2022/02/06 08:35:11;;;;;;;2.60;1.10;;;8.30;99.90;;;;;;5073327;28;20444;-73
2022/02/06 08:37:38;;;;;;;0.90;0.87;;;8.40;99.90;;;;;;5073110;28;20903;-72
2022/02/06 08:40:12;;;;;;;2.13;1.00;;;8.40;99.90;;;;;;5073367;28;20429;-72
2022/02/06 08:42:40;;;;;;;1.70;1.50;;;8.40;99.90;;;;;;5072956;28;20472;-72
2022/02/06 08:45:09;;;;;;;1.00;0.73;;;8.40;99.90;;;;;;5073206;28;20487;-73
2022/02/06 08:47:36;;;;;;;2.07;1.40;;;8.40;99.90;;;;;;5073264;28;20430;-73
2022/02/06 08:50:03;;;;;;;2.97;0.90;;;8.50;99.90;;;;;;5072851;28;20445;-73
2022/02/06 08:52:30;;;;;;;1.70;0.83;;;8.50;99.90;;;;;;5072767;28;20468;-73
2022/02/06 08:54:57;;;;;;;1.57;1.07;;;8.50;99.90;;;;;;5073159;28;20498;-73
2022/02/06 08:57:25;;;;;;;1.00;0.77;;;8.50;99.90;;;;;;5073199;28;20445;-72
2022/02/06 08:59:57;;;;;;;1.70;0.83;;;8.50;99.90;;;;;;5073074;28;20444;-73
2022/02/06 09:02:24;;;;;;;1.13;1.00;;;8.50;99.90;;;;;;5073172;28;20461;-72
2022/02/06 09:04:51;;;;;;;2.70;0.73;;;8.50;99.90;;;;;;5072854;28;20534;-72
2022/02/06 09:07:20;;;;;;;1.93;1.73;;;8.50;99.90;;;;;;5073142;28;20460;-72
2022/02/06 09:09:49;;;;;;;1.70;0.83;;;8.50;99.90;;;;;;5073126;28;20445;-72
2022/02/06 09:12:16;;;;;;;1.00;1.00;;;8.60;99.90;;;;;;5072982;28;20468;-72
2022/02/06 09:14:43;;;;;;;3.13;1.00;;;8.50;99.90;;;;;;5072820;28;21263;-72
2022/02/06 09:17:11;;;;;;;1.53;1.17;;;8.50;99.90;;;;;;5073138;28;20433;-72
2022/02/06 09:19:39;;;;;;;1.10;0.70;;;8.40;99.90;;;;;;5073002;28;20444;-72
2022/02/06 09:22:08;;;;;;;4.07;1.37;;;8.40;99.90;;;;;;5073025;28;20464;-71
2022/02/06 09:24:34;;;;;;;1.20;0.80;;;8.40;99.90;;;;;;5072800;28;20568;-71
2022/02/06 09:27:01;;;;;;;0.67;0.67;;;8.40;99.90;;;;;;5072844;28;20475;-71
2022/02/06 09:29:28;;;;;;;0.75;0.68;;;8.40;99.90;;;;;;5071761;28;20434;-71
2022/02/06 09:31:55;;;;;;;1.80;0.83;;;8.50;99.90;;;;;;5072493;28;20744;-70
2022/02/06 09:36:49;;;;;;;0.80;0.80;;;8.50;99.90;;;;;;5072977;28;20417;-76
2022/02/06 09:39:16;;;;;;;2.87;0.90;;;8.50;99.90;;;;;;5072972;28;20813;-76
2022/02/06 09:41:46;;;;;;;2.20;1.30;;;8.50;99.90;;;;;;5076386;28;20428;-76
2022/02/06 09:44:14;;;;;;;1.27;0.80;;;8.50;99.90;;;;;;5076263;28;20433;-70
2022/02/06 09:46:41;;;;;;;1.13;1.00;;;8.50;99.90;;;;;;5076184;28;20459;-70
2022/02/06 09:49:09;;;;;;;0.80;0.63;;;8.50;99.90;;;;;;5075827;28;20445;-70
2022/02/06 09:51:37;;;;;;;2.00;0.90;;;8.50;99.90;;;;;;5075798;28;20444;-70
2022/02/06 09:54:04;;;;;;;2.30;1.23;;;8.60;99.90;;;;;;5076090;28;20448;-71
2022/02/06 09:56:32;;;;;;;1.00;0.83;;;8.60;99.90;;;;;;5075656;28;20535;-69
2022/02/06 09:59:03;;;;;;;1.67;0.90;;;8.60;99.90;;;;;;5075945;28;20441;-70
2022/02/06 10:01:33;;;;;;;1.17;0.67;;;8.60;99.90;;;;;;5075958;28;20433;-70
2022/02/06 10:04:04;;;;;;;2.17;0.70;;;8.60;99.90;;;;;;5075949;28;20425;-69
2022/02/06 10:06:38;;;;;;;0.70;0.53;;;8.60;99.90;;;;;;5075888;28;20900;-70
2022/02/06 10:09:09;;;;;;;1.10;0.57;;;8.60;99.90;;;;;;5075811;28;20441;-70
2022/02/06 10:11:44;;;;;;;1.07;0.83;;;8.50;99.90;;;;;;5075387;28;20926;-69
2022/02/06 10:14:11;;;;;;;0.63;0.63;;;8.50;99.90;;;;;;5075699;28;20433;-69
2022/02/06 10:16:38;;;;;;;1.27;0.60;;;8.60;99.90;;;;;;5075327;28;20468;-70
2022/02/06 10:19:05;;;;;;;0.90;0.90;;;8.50;99.90;;;;;;5075576;28;20449;-70
2022/02/06 10:21:35;;;;;;;1.83;0.70;;;8.50;99.90;;;;;;5075334;28;20440;-70
2022/02/06 10:24:08;;;;;;;1.30;0.60;;;8.50;99.90;;;;;;5075605;28;20445;-70
2022/02/06 10:26:41;;;;;;;1.77;0.70;;;8.50;99.90;;;;;;5075410;28;20464;-70
2022/02/06 10:29:24;;;;;;;0.80;0.70;;;8.50;99.90;;;;;;5075274;28;20891;-70
2022/02/06 10:31:52;;;;;;;0.60;0.50;;;8.50;99.90;;;;;;5075391;28;20433;-70
2022/02/06 10:34:22;;;;;;;1.37;0.50;;;8.40;99.90;;;;;;5075413;28;20432;-70
2022/02/06 10:36:49;;;;;;;1.27;0.70;;;8.50;99.90;;;;;;5075450;28;20459;-70
2022/02/06 10:39:22;;;;;;;1.20;1.10;;;8.50;99.90;;;;;;5075955;28;20440;-69
2022/02/06 10:41:50;;;;;;;1.67;1.50;;;8.50;99.90;;;;;;5075559;28;20900;-71
2022/02/06 10:44:20;;;;;;;0.80;0.80;;;8.60;99.90;;;;;;5075480;28;20444;-70
2022/02/06 10:46:51;;;;;;;1.47;0.90;;;8.70;99.90;;;;;;5074930;28;20477;-70
2022/02/06 10:49:19;;;;;;;2.10;0.60;;;8.70;99.90;;;;;;5075149;28;20460;-70
2022/02/06 10:51:49;;;;;;;0.47;0.47;;;8.80;99.90;;;;;;5074841;28;20538;-70
2022/02/06 10:54:17;;;;;;;0.90;0.60;;;8.70;99.90;;;;;;5075438;28;20483;-70
2022/02/06 10:57:04;;;;;;;0.90;0.70;;;8.70;99.90;;;;;;5075409;28;20445;-73
2022/02/06 10:59:44;;;;;;;0.50;0.40;;;8.80;99.90;;;;;;5075185;28;20429;-69
2022/02/06 11:02:20;;;;;;;0.97;0.60;;;8.80;99.90;;;;;;5075397;28;20508;-73
2022/02/06 11:05:00;;;;;;;1.73;0.70;;;8.70;99.90;;;;;;5074891;28;20490;-69
2022/02/06 11:07:27;;;;;;;1.90;1.40;;;8.80;99.90;;;;;;5075032;28;20429;-73
2022/02/06 11:10:09;;;;;;;2.10;0.80;;;8.80;99.90;;;;;;5075143;28;20445;-73
2022/02/06 11:12:40;;;;;;;1.13;0.80;;;8.80;99.90;;;;;;5074534;28;20978;-73
2022/02/06 11:15:24;;;;;;;1.13;0.80;;;8.70;99.90;;;;;;5074816;28;20452;-73
2022/02/06 11:18:07;;;;;;;2.00;0.70;;;8.70;99.90;;;;;;5074667;28;20519;-74
2022/02/06 11:20:34;;;;;;;3.70;0.80;;;8.70;99.90;;;;;;5074418;28;20425;-74
2022/02/06 11:23:03;;;;;;;1.47;0.77;;;8.70;99.90;;;;;;5074312;28;20464;-70
2022/02/06 11:25:31;;;;;;;0.67;0.50;;;8.70;99.90;;;;;;5074289;28;20501;-72
2022/02/06 11:28:00;;;;;;;1.70;0.60;;;8.70;99.90;;;;;;5074387;28;20448;-74
2022/02/06 11:30:27;;;;;;;1.57;1.03;;;8.70;99.90;;;;;;5074252;28;20455;-73
2022/02/06 11:32:54;;;;;;;0.60;0.50;;;8.70;99.90;;;;;;5073727;28;20461;-70
2022/02/06 11:35:24;;;;;;;2.33;0.47;;;8.70;99.90;;;;;;5074111;28;20472;-72
2022/02/06 11:43:53;;;;;;;1.93;0.50;;;8.60;99.90;;;;;;5073613;28;20563;-69
2022/02/06 11:46:26;;;;;;;1.17;0.50;;;8.60;99.90;;;;;;5073807;28;20488;-69
2022/02/06 11:49:04;;;;;;;1.27;0.30;;;8.70;99.90;;;;;;5074400;28;20421;-69
2022/02/06 11:51:31;;;;;;;1.03;0.40;;;8.70;99.90;;;;;;5073867;28;20429;-69
2022/02/06 11:53:57;;;;;;;1.23;0.73;;;8.70;99.90;;;;;;5073700;28;20471;-73
2022/02/06 11:56:33;;;;;;;1.30;0.70;;;8.70;99.90;;;;;;5073957;28;20440;-73
2022/02/06 11:59:12;;;;;;;1.23;0.50;;;8.80;99.90;;;;;;5073482;28;20432;-73
2022/02/06 12:01:41;;;;;;;0.40;0.40;;;8.80;99.90;;;;;;5073711;28;20425;-73
2022/02/06 12:04:19;;;;;;;1.33;0.60;;;8.80;99.90;;;;;;5073163;28;20464;-73
2022/02/06 12:06:54;;;;;;;1.23;0.60;;;8.80;99.90;;;;;;5073678;28;20514;-72
2022/02/06 12:09:23;;;;;;;1.30;0.60;;;8.90;99.90;;;;;;5073619;28;20464;-73
2022/02/06 12:12:21;;;;;;;1.03;0.60;;;8.90;99.90;;;;;;5073593;28;20448;-70
2022/02/06 12:15:19;;;;;;;2.63;0.50;;;8.90;99.90;;;;;;5073287;28;20463;-71
2022/02/06 12:18:09;;;;;;;0.70;0.60;;;8.90;99.90;;;;;;5073248;28;20920;-69
2022/02/06 12:20:47;;;;;;;1.27;0.50;;;8.90;99.90;;;;;;5073454;28;20478;-70
2022/02/06 12:23:40;;;;;;;1.27;0.50;;;8.90;99.90;;;;;;5073322;28;20487;-69
2022/02/06 12:26:38;;;;;;;0.90;0.80;;;8.90;99.90;;;;;;5073338;28;20468;-69
2022/02/06 12:29:08;;;;;;;1.03;0.53;;;9.00;99.90;;;;;;5073041;28;20904;-69
2022/02/06 12:31:54;;;;;;;0.70;0.63;;;9.00;99.90;;;;;;5073375;28;20437;-70
2022/02/06 12:37:27;;;;;;;0.70;0.70;;;9.00;99.90;;;;;;5072653;28;20431;-70
2022/02/06 12:39:56;;;;;;;0.90;0.87;;;9.00;99.90;;;;;;5073248;28;20432;-70
2022/02/06 12:42:27;;;;;;;2.07;0.70;;;9.10;99.90;;;;;;5073130;28;20494;-69
2022/02/06 12:44:56;;;;;;;0.87;0.67;;;9.20;99.90;;;;;;5073176;28;20421;-70
2022/02/06 12:47:27;;;;;;;1.63;1.17;;;9.30;99.90;;;;;;5073200;28;20447;-70
2022/02/06 12:49:55;;;;;;;1.97;0.97;;;9.30;99.90;;;;;;5073121;28;20437;-70
2022/02/06 12:52:22;;;;;;;1.00;0.77;;;9.30;99.90;;;;;;5072909;28;21002;-70
2022/02/06 12:54:49;;;;;;;2.27;0.73;;;9.30;99.90;;;;;;5073322;28;20452;-71
2022/02/06 12:57:19;;;;;;;5.53;0.90;;;9.30;99.90;;;;;;5073185;28;20802;-70
2022/02/06 12:59:47;;;;;;;1.40;1.00;;;9.30;99.90;;;;;;5073388;28;20486;-74
2022/02/06 13:02:18;;;;;;;2.77;1.00;;;9.30;99.90;;;;;;5073044;28;20995;-74
2022/02/06 13:05:01;;;;;;;3.33;0.70;;;9.30;99.90;;;;;;5073285;28;20432;-74
2022/02/06 13:07:30;;;;;;;4.10;0.70;;;9.40;99.90;;;;;;5073080;28;20461;-74
2022/02/06 13:10:03;;;;;;;2.43;0.80;;;9.40;99.90;;;;;;5073048;28;20539;-75
2022/02/06 13:12:36;;;;;;;1.80;0.70;;;9.40;99.90;;;;;;5072727;28;20983;-74
2022/02/06 13:15:30;;;;;;;3.60;1.17;;;9.40;99.90;;;;;;5074029;28;20456;-73
2022/02/06 13:18:13;;;;;;;0.50;0.50;;;9.30;99.90;;;;;;5076861;28;20437;-73
2022/02/06 13:20:58;;;;;;;0.70;0.40;;;9.10;99.90;;;;;;5076590;28;20537;-72
2022/02/06 13:23:41;;;;;;;2.20;0.70;;;8.90;99.90;;;;;;5076627;28;20500;-73
2022/02/06 13:26:15;;;;;;;9.40;6.93;;;8.70;99.90;;;;;;5076561;28;20475;-73
2022/02/06 13:28:50;;;;;;;5.30;4.80;;;8.60;99.90;;;;;;5076646;28;20443;-73
2022/02/06 13:31:37;;;;;;;2.73;1.40;;;8.50;99.90;;;;;;5077109;28;20793;-73
2022/02/06 13:34:17;;;;;;;2.43;1.37;;;8.40;99.90;;;;;;5076242;28;20440;-73
2022/02/06 13:36:57;;;;;;;3.07;1.00;;;8.20;99.90;;;;;;5076651;28;20429;-72
2022/02/06 13:39:34;;;;;;;1.13;0.90;;;8.20;99.90;;;;;;5076256;28;20433;-72
2022/02/06 13:42:11;;;;;;;6.37;0.80;;;8.10;99.90;;;;;;5076292;28;20472;-70
2022/02/06 13:44:37;;;;;;;1.33;0.70;;;7.90;99.90;;;;;;5076408;28;20436;-71
2022/02/06 13:47:06;;;;;;;2.03;0.63;;;7.90;99.90;;;;;;5076107;28;20480;-71
2022/02/06 13:49:39;;;;;;;0.50;0.40;;;7.80;99.90;;;;;;5076156;28;20444;-73
2022/02/06 13:52:12;;;;;;;1.60;0.50;;;7.70;99.90;;;;;;5076107;28;20468;-72
2022/02/06 13:54:42;;;;;;;1.37;0.70;;;7.80;99.90;;;;;;5076117;28;20432;-71
2022/02/06 13:57:09;;;;;;;2.47;0.60;;;7.70;99.90;;;;;;5076345;28;20444;-75
2022/02/06 13:59:37;;;;;;;2.30;0.57;;;7.80;99.90;;;;;;5076000;28;20452;-70
2022/02/06 14:02:08;;;;;;;1.20;0.60;;;7.80;99.90;;;;;;5076188;28;20479;-69
2022/02/06 14:04:37;;;;;;;1.63;0.70;;;7.70;99.90;;;;;;5076028;28;20435;-69
2022/02/06 14:07:08;;;;;;;1.63;0.57;;;7.70;99.90;;;;;;5075577;28;20486;-69
2022/02/06 14:09:48;;;;;;;1.03;0.80;;;7.80;99.90;;;;;;5075750;28;20524;-69
2022/02/06 14:12:17;;;;;;;0.53;0.50;;;7.80;99.90;;;;;;5075720;28;20495;-69
2022/02/06 14:14:51;;;;;;;2.17;1.00;;;7.90;99.90;;;;;;5075421;28;20491;-70
2022/02/06 14:17:19;;;;;;;2.10;0.90;;;7.80;99.90;;;;;;5075485;28;20487;-69
2022/02/06 14:19:47;;;;;;;2.50;0.80;;;7.80;99.90;;;;;;5075163;28;20955;-69
2022/02/06 14:22:26;;;;;;;0.73;0.73;;;7.90;99.90;;;;;;5075333;28;20504;-69
2022/02/06 14:24:54;;;;;;;0.70;0.60;;;7.90;99.90;;;;;;5075181;28;20899;-69
2022/02/06 14:27:29;;;;;;;3.70;0.70;;;7.90;99.90;;;;;;5075575;28;20484;-69
2022/02/06 14:30:02;;;;;;;2.90;1.00;;;7.90;99.90;;;;;;5075056;28;20915;-69
2022/02/06 14:32:28;;;;;;;1.20;0.87;;;7.90;99.90;;;;;;5075093;28;20547;-69
2022/02/06 14:35:00;;;;;;;2.43;1.00;;;8.00;99.90;;;;;;5075253;28;20448;-69
2022/02/06 14:37:42;;;;;;;2.87;0.90;;;7.90;99.90;;;;;;5074878;28;20421;-68
2022/02/06 14:40:15;;;;;;;1.30;0.80;;;8.00;99.90;;;;;;5075274;28;20440;-69
2022/02/06 14:42:50;;;;;;;0.90;0.80;;;8.00;99.90;;;;;;5074775;28;20468;-69
2022/02/06 14:45:17;;;;;;;4.67;0.80;;;8.10;99.90;;;;;;5075136;28;20447;-71
2022/02/06 14:47:43;;;;;;;1.53;0.90;;;8.00;99.90;;;;;;5074999;28;20481;-71
2022/02/06 14:50:15;;;;;;;1.03;0.90;;;8.00;99.90;;;;;;5074917;28;20449;-70